Terminal Aerodrome Forecast
Issued by NWS Missoula, MT

Home | Current Version | Previous Version | Text Only | Print | Product List | Glossary On
Versions: 1 2 3 4 5 6 7 8 9 10 11 12 13 14 15 16 17 18
000
FTUS45 KMSO 191721
TAFMSO
TAF
KMSO 191721Z 1918/2018 VRB02KT 4SM BR SCT050 OVC070
     FM192000 VRB03KT 5SM -SHRA BR BKN050 OVC070
     FM200300 32005KT 4SM BR BKN050
     FM201000 00000KT 2SM BR SCT005 BKN025=

USA.gov is the U.S. government's official web portal to all federal, state and local government web resources and services.